Time;durP1;ratioP1;P1;durP2;ratioP2;P2;SDS_P1;SDS_P2;PMS_P1;PMS_P2;Temp;Humidity;BMP_temperature;BMP_pressure;BME280_temperature;BME280_humidity;BME280_pressure;Samples;Min_cycle;Max_cycle;Signal;HPM_P1;HPM_P2
2022/09/09 00:01:44;;;;;;;7.83;4.53;;;13.80;99.90;;;;;;5049733;28;20209;-71
2022/09/09 00:04:16;;;;;;;8.57;4.53;;;13.80;99.90;;;;;;5048594;28;20221;-71
2022/09/09 00:06:46;;;;;;;9.20;4.37;;;13.80;99.90;;;;;;5054359;28;20713;-71
2022/09/09 00:09:16;;;;;;;6.23;4.10;;;13.70;99.90;;;;;;5054602;28;20241;-70
2022/09/09 00:11:50;;;;;;;7.20;4.83;;;13.60;99.90;;;;;;5054797;28;20210;-71
2022/09/09 00:14:28;;;;;;;9.10;4.77;;;13.60;99.90;;;;;;5054460;28;20224;-71
2022/09/09 00:17:02;;;;;;;6.80;4.50;;;13.70;99.90;;;;;;5053875;28;20206;-72
2022/09/09 00:19:33;;;;;;;8.40;5.17;;;13.50;99.90;;;;;;5052857;28;20736;-70
2022/09/09 00:22:15;;;;;;;6.37;4.67;;;13.40;99.90;;;;;;5056129;28;20664;-70
2022/09/09 00:24:45;;;;;;;7.83;4.70;;;13.40;99.90;;;;;;5056646;28;20553;-70
2022/09/09 00:27:19;;;;;;;7.53;4.63;;;13.30;99.90;;;;;;5052999;28;20452;-69
2022/09/09 00:29:52;;;;;;;9.20;4.63;;;13.20;99.90;;;;;;5054407;28;20570;-70
2022/09/09 00:32:20;;;;;;;7.80;4.63;;;13.20;99.90;;;;;;5051339;28;20225;-70
2022/09/09 00:34:50;;;;;;;8.73;5.03;;;13.10;99.90;;;;;;5051352;28;20625;-69
2022/09/09 00:37:18;;;;;;;8.17;5.00;;;13.10;99.90;;;;;;5052176;28;20734;-70
2022/09/09 00:39:47;;;;;;;8.10;4.83;;;13.10;99.90;;;;;;5054009;28;20217;-70
2022/09/09 00:42:19;;;;;;;8.90;4.83;;;13.10;99.90;;;;;;5054769;28;20569;-69
2022/09/09 00:44:53;;;;;;;7.33;4.40;;;13.00;99.90;;;;;;5054450;28;20201;-69
2022/09/09 00:47:40;;;;;;;9.83;4.80;;;13.00;99.90;;;;;;5053621;28;20233;-70
2022/09/09 00:50:24;;;;;;;7.40;5.20;;;13.00;99.90;;;;;;5045680;28;20213;-71
2022/09/09 00:52:59;;;;;;;5.63;4.70;;;13.00;99.90;;;;;;5040147;28;20267;-70
2022/09/09 00:55:36;;;;;;;7.27;4.83;;;13.00;99.90;;;;;;5053074;28;20555;-69
2022/09/09 00:58:08;;;;;;;7.37;4.90;;;12.90;99.90;;;;;;5045212;28;20700;-70
2022/09/09 01:00:42;;;;;;;10.23;5.37;;;13.00;99.90;;;;;;5053516;28;20233;-70
2022/09/09 01:03:24;;;;;;;7.97;4.90;;;12.90;99.90;;;;;;5052311;28;20385;-70
2022/09/09 01:06:02;;;;;;;10.67;5.93;;;12.90;99.90;;;;;;5054556;28;20577;-70
2022/09/09 01:09:03;;;;;;;8.40;5.07;;;12.90;99.90;;;;;;5052033;28;20201;-70
2022/09/09 01:11:36;;;;;;;7.63;5.20;;;12.90;99.90;;;;;;5028494;28;20317;-70
2022/09/09 01:14:18;;;;;;;10.70;5.67;;;12.90;99.90;;;;;;5053851;28;20559;-70
2022/09/09 01:16:46;;;;;;;9.93;5.83;;;12.80;99.90;;;;;;5053015;28;20213;-70
2022/09/09 01:19:23;;;;;;;6.00;4.70;;;12.90;99.90;;;;;;5046888;28;20213;-68
2022/09/09 01:21:57;;;;;;;9.17;5.63;;;12.90;99.90;;;;;;5064827;28;20228;-70
2022/09/09 01:24:32;;;;;;;9.60;5.20;;;12.90;99.90;;;;;;5052679;28;20202;-70
2022/09/09 01:27:03;;;;;;;9.53;5.77;;;12.80;99.90;;;;;;5052399;28;20205;-69
2022/09/09 01:29:30;;;;;;;8.67;5.50;;;12.80;99.90;;;;;;5052772;28;20206;-69
2022/09/09 01:31:59;;;;;;;10.27;6.27;;;12.80;99.90;;;;;;5053316;28;20202;-70
2022/09/09 01:34:29;;;;;;;8.43;5.80;;;12.80;99.90;;;;;;5053348;28;20209;-70
2022/09/09 01:37:01;;;;;;;8.00;5.60;;;12.80;99.90;;;;;;5052629;28;20249;-71
2022/09/09 01:39:28;;;;;;;7.83;5.80;;;12.80;99.90;;;;;;5051925;28;20206;-70
2022/09/09 01:41:56;;;;;;;9.13;5.87;;;12.80;99.90;;;;;;5051019;28;20210;-70
2022/09/09 01:44:26;;;;;;;10.60;5.63;;;12.80;99.90;;;;;;5050184;28;20218;-70
2022/09/09 01:46:53;;;;;;;9.40;5.63;;;12.80;99.90;;;;;;5052161;28;20205;-71
2022/09/09 01:49:20;;;;;;;8.63;5.37;;;12.90;99.90;;;;;;5053163;28;20308;-71
2022/09/09 01:51:50;;;;;;;9.90;5.97;;;12.80;99.90;;;;;;5052903;28;20226;-70
2022/09/09 01:54:18;;;;;;;8.13;5.60;;;12.80;99.90;;;;;;5051933;28;20209;-70
2022/09/09 01:56:56;;;;;;;9.03;6.60;;;12.80;99.90;;;;;;5051038;28;20220;-70
2022/09/09 01:59:38;;;;;;;9.23;6.30;;;12.80;99.90;;;;;;5051753;28;20205;-71
2022/09/09 02:02:11;;;;;;;8.77;5.87;;;12.90;99.90;;;;;;5052427;28;20202;-70
2022/09/09 02:04:41;;;;;;;9.87;5.97;;;12.90;99.90;;;;;;5052675;28;20198;-70
2022/09/09 02:07:22;;;;;;;7.60;6.03;;;12.90;99.90;;;;;;5051630;28;20218;-70
2022/09/09 02:09:58;;;;;;;12.60;6.40;;;12.90;99.90;;;;;;5051756;28;20573;-69
2022/09/09 02:12:26;;;;;;;11.50;5.97;;;12.90;99.90;;;;;;5050419;28;20221;-69
2022/09/09 02:15:01;;;;;;;12.00;6.40;;;12.90;99.90;;;;;;5051660;28;20646;-70
2022/09/09 02:17:31;;;;;;;10.20;5.70;;;12.90;99.90;;;;;;5051211;28;20201;-70
2022/09/09 02:20:07;;;;;;;9.60;6.27;;;12.90;99.90;;;;;;5051354;28;20217;-69
2022/09/09 02:22:35;;;;;;;8.93;6.43;;;12.90;99.90;;;;;;5040677;28;20230;-71
2022/09/09 02:25:05;;;;;;;8.77;6.33;;;12.90;99.90;;;;;;5050922;28;20221;-71
2022/09/09 02:27:32;;;;;;;10.40;5.93;;;12.90;99.90;;;;;;5048379;28;20300;-70
2022/09/09 02:30:02;;;;;;;8.23;6.13;;;12.90;99.90;;;;;;5052516;28;20228;-70
2022/09/09 02:32:31;;;;;;;11.07;6.20;;;12.90;99.90;;;;;;5052203;28;20237;-70
2022/09/09 02:35:02;;;;;;;9.37;6.37;;;12.90;99.90;;;;;;5051892;28;20218;-69
2022/09/09 02:37:35;;;;;;;8.93;6.00;;;12.80;99.90;;;;;;5049520;28;20226;-70
2022/09/09 02:40:02;;;;;;;7.77;5.93;;;12.80;99.90;;;;;;5051404;28;20488;-70
2022/09/09 02:42:29;;;;;;;11.37;7.20;;;12.80;99.90;;;;;;5052076;28;20636;-69
2022/09/09 02:44:56;;;;;;;10.23;6.67;;;12.80;99.90;;;;;;5050170;28;20213;-70
2022/09/09 02:47:36;;;;;;;9.13;6.30;;;12.80;99.90;;;;;;5051182;28;20202;-70
2022/09/09 02:50:12;;;;;;;10.13;6.43;;;12.80;99.90;;;;;;5051930;28;20212;-70
2022/09/09 02:52:49;;;;;;;9.80;6.60;;;12.80;99.90;;;;;;5051041;28;20597;-71
2022/09/09 02:55:24;;;;;;;9.13;6.10;;;12.90;99.90;;;;;;5052175;28;20681;-70
2022/09/09 02:57:53;;;;;;;10.40;7.00;;;12.80;99.90;;;;;;5050526;28;20634;-70
2022/09/09 03:00:25;;;;;;;10.87;6.90;;;12.90;99.90;;;;;;5051431;28;20601;-70
2022/09/09 03:02:54;;;;;;;10.53;6.33;;;12.90;99.90;;;;;;5050161;28;20205;-71
2022/09/09 03:05:21;;;;;;;9.20;6.70;;;12.90;99.90;;;;;;5050740;28;20659;-71
2022/09/09 03:07:49;;;;;;;10.70;6.20;;;12.90;99.90;;;;;;5051063;28;20248;-71
2022/09/09 03:10:16;;;;;;;8.33;6.27;;;12.90;99.90;;;;;;5051154;28;20575;-70
2022/09/09 03:12:43;;;;;;;12.90;7.97;;;12.90;99.90;;;;;;5050994;28;20210;-70
2022/09/09 03:15:10;;;;;;;11.80;7.23;;;12.90;99.90;;;;;;5050920;28;20630;-71
2022/09/09 03:17:37;;;;;;;10.03;6.83;;;12.90;99.90;;;;;;5050426;28;20264;-70
2022/09/09 03:20:07;;;;;;;9.43;6.77;;;12.90;99.90;;;;;;5049365;28;20482;-70
2022/09/09 03:22:33;;;;;;;11.70;6.50;;;12.70;99.90;;;;;;5053222;28;20222;-70
2022/09/09 03:25:01;;;;;;;8.80;6.73;;;12.90;99.90;;;;;;5052506;28;20206;-70
2022/09/09 03:27:28;;;;;;;9.93;6.60;;;12.90;99.90;;;;;;5054488;28;20202;-69
2022/09/09 03:29:55;;;;;;;9.00;6.00;;;12.90;99.90;;;;;;5056290;28;20223;-70
2022/09/09 03:32:24;;;;;;;8.83;6.53;;;12.90;99.90;;;;;;5054647;28;20744;-69
2022/09/09 03:34:50;;;;;;;7.83;6.07;;;12.90;99.90;;;;;;5054559;28;20305;-69
2022/09/09 03:37:18;;;;;;;10.03;6.67;;;13.00;99.90;;;;;;5046913;28;20733;-69
2022/09/09 03:39:45;;;;;;;10.03;6.87;;;12.90;99.90;;;;;;5053896;28;20217;-70
2022/09/09 03:42:16;;;;;;;11.23;7.10;;;13.00;99.90;;;;;;5054612;28;20206;-68
2022/09/09 03:44:46;;;;;;;9.63;6.93;;;12.90;99.90;;;;;;5054911;28;20194;-70
2022/09/09 03:47:13;;;;;;;12.47;7.17;;;12.90;99.90;;;;;;5053311;28;20210;-69
2022/09/09 03:49:39;;;;;;;9.53;5.93;;;12.90;99.90;;;;;;5053414;28;20334;-69
2022/09/09 03:52:06;;;;;;;8.47;5.83;;;12.90;99.90;;;;;;5052668;28;20245;-70
2022/09/09 03:54:35;;;;;;;7.47;5.40;;;12.90;99.90;;;;;;5041060;28;20210;-70
2022/09/09 03:57:01;;;;;;;6.10;5.30;;;12.80;99.90;;;;;;5047095;28;20214;-70
2022/09/09 03:59:28;;;;;;;6.83;5.40;;;12.80;99.90;;;;;;5054766;28;20590;-70
2022/09/09 04:01:56;;;;;;;6.70;4.93;;;12.80;99.90;;;;;;5054987;28;20202;-70
2022/09/09 04:04:23;;;;;;;6.57;5.03;;;12.80;99.90;;;;;;5054418;28;20285;-69
2022/09/09 04:06:50;;;;;;;8.93;5.67;;;12.80;99.90;;;;;;5052283;28;20257;-69
2022/09/09 04:09:17;;;;;;;8.20;5.23;;;12.80;99.90;;;;;;5053432;28;20464;-70
2022/09/09 04:11:45;;;;;;;6.80;5.23;;;12.90;99.90;;;;;;5052676;28;20229;-70
2022/09/09 04:14:13;;;;;;;7.30;5.53;;;12.80;99.90;;;;;;5054694;28;20230;-69
2022/09/09 04:16:42;;;;;;;8.13;5.40;;;12.90;99.90;;;;;;5052358;28;20233;-69
2022/09/09 04:19:12;;;;;;;7.03;5.53;;;12.90;99.90;;;;;;5054338;28;20213;-70
2022/09/09 04:21:39;;;;;;;10.87;6.27;;;12.90;99.90;;;;;;5049846;28;20305;-70
2022/09/09 04:24:06;;;;;;;7.80;5.07;;;13.00;99.90;;;;;;5054362;28;20303;-71
2022/09/09 04:26:33;;;;;;;6.33;5.27;;;13.10;99.90;;;;;;5051187;28;20213;-70
2022/09/09 04:29:01;;;;;;;7.17;4.57;;;13.10;99.90;;;;;;5054123;28;20213;-70
2022/09/09 04:31:28;;;;;;;7.80;5.37;;;13.00;99.90;;;;;;5054499;28;20693;-70
2022/09/09 04:33:55;;;;;;;7.27;5.07;;;13.10;99.90;;;;;;5052267;28;20198;-70
2022/09/09 04:36:23;;;;;;;7.37;4.97;;;13.10;99.90;;;;;;5051332;28;20832;-70
2022/09/09 04:38:49;;;;;;;7.73;5.53;;;13.00;99.90;;;;;;5052454;28;20206;-70
2022/09/09 04:41:17;;;;;;;6.93;5.23;;;13.00;99.90;;;;;;5052283;28;20618;-70
2022/09/09 04:43:44;;;;;;;6.23;5.00;;;13.10;99.90;;;;;;5053919;28;20279;-69
2022/09/09 04:46:12;;;;;;;6.73;5.07;;;13.10;99.90;;;;;;5051100;28;20210;-70
2022/09/09 04:48:39;;;;;;;5.40;4.50;;;13.10;99.90;;;;;;5052059;28;20216;-69
2022/09/09 04:51:10;;;;;;;4.70;4.17;;;13.10;99.90;;;;;;5051819;28;20244;-70
2022/09/09 04:53:37;;;;;;;7.33;4.50;;;13.10;99.90;;;;;;5052069;28;20194;-69
2022/09/09 04:56:05;;;;;;;5.13;4.33;;;13.10;99.90;;;;;;5052977;28;20206;-69
2022/09/09 04:58:32;;;;;;;5.83;4.70;;;13.10;99.90;;;;;;5050730;28;20214;-70
2022/09/09 05:01:05;;;;;;;6.67;4.43;;;13.10;99.90;;;;;;5052389;28;20559;-69
2022/09/09 05:03:33;;;;;;;6.97;4.30;;;13.10;99.90;;;;;;5055160;28;20206;-69
2022/09/09 05:06:05;;;;;;;5.83;4.10;;;13.10;99.90;;;;;;5053339;28;20651;-70
2022/09/09 05:08:32;;;;;;;7.93;4.63;;;13.10;99.90;;;;;;5052463;28;20206;-70
2022/09/09 05:10:59;;;;;;;5.73;4.50;;;13.10;99.90;;;;;;5052956;28;20210;-69
2022/09/09 05:13:26;;;;;;;5.53;4.23;;;13.20;99.90;;;;;;5052346;28;20442;-70
2022/09/09 05:15:53;;;;;;;4.77;4.30;;;13.20;99.90;;;;;;5044974;28;20201;-71
2022/09/09 05:18:22;;;;;;;7.37;4.20;;;13.10;99.90;;;;;;5044965;28;20576;-70
2022/09/09 05:20:50;;;;;;;5.10;4.03;;;13.10;99.90;;;;;;5054968;28;20205;-69
2022/09/09 05:23:17;;;;;;;4.60;3.87;;;13.10;99.90;;;;;;5051216;28;20222;-70
2022/09/09 05:25:46;;;;;;;6.43;3.70;;;13.10;99.90;;;;;;5051033;28;20694;-70
2022/09/09 05:28:13;;;;;;;5.13;3.63;;;13.20;99.90;;;;;;5049705;28;20214;-71
2022/09/09 05:30:40;;;;;;;6.40;4.40;;;13.20;99.90;;;;;;5050929;28;20215;-71
2022/09/09 05:33:09;;;;;;;5.50;4.50;;;13.20;99.90;;;;;;5047848;28;20696;-69
2022/09/09 05:35:35;;;;;;;4.53;4.13;;;13.20;99.90;;;;;;5050113;28;20233;-74
2022/09/09 05:38:04;;;;;;;7.07;4.87;;;13.20;99.90;;;;;;5049784;28;20234;-71
2022/09/09 05:40:30;;;;;;;5.33;4.43;;;13.20;99.90;;;;;;5048565;28;20643;-71
2022/09/09 05:43:01;;;;;;;5.13;3.97;;;13.20;99.90;;;;;;5048451;28;20626;-71
2022/09/09 05:45:28;;;;;;;8.20;4.50;;;13.20;99.90;;;;;;5050957;28;20209;-72
2022/09/09 05:47:55;;;;;;;5.13;4.50;;;13.20;99.90;;;;;;5049287;28;20217;-71
2022/09/09 05:50:22;;;;;;;5.40;4.23;;;13.20;99.90;;;;;;5050609;28;20835;-68
2022/09/09 05:52:49;;;;;;;5.77;4.60;;;13.20;99.90;;;;;;5049591;28;20218;-70
2022/09/09 05:55:17;;;;;;;7.73;4.20;;;13.20;99.90;;;;;;5049142;28;20691;-69
2022/09/09 05:57:51;;;;;;;5.07;4.33;;;13.30;99.90;;;;;;5044470;28;20206;-68
2022/09/09 06:00:19;;;;;;;5.60;5.00;;;13.20;99.90;;;;;;5048978;28;20499;-69
2022/09/09 06:02:52;;;;;;;5.87;3.90;;;13.30;99.90;;;;;;5049192;28;20205;-70
2022/09/09 06:05:19;;;;;;;6.10;4.60;;;13.30;99.90;;;;;;5049163;28;20206;-68
2022/09/09 06:07:45;;;;;;;5.80;4.10;;;13.30;99.90;;;;;;5049096;28;20209;-69
2022/09/09 06:10:13;;;;;;;6.37;4.60;;;13.30;99.90;;;;;;5048436;28;20216;-69
2022/09/09 06:12:41;;;;;;;5.63;4.77;;;13.30;99.90;;;;;;5049637;28;20283;-71
2022/09/09 06:15:09;;;;;;;4.70;4.17;;;13.30;99.90;;;;;;5049962;28;20237;-71
2022/09/09 06:17:36;;;;;;;5.80;4.30;;;13.30;99.90;;;;;;5050478;28;20229;-70
2022/09/09 06:20:03;;;;;;;5.97;5.27;;;13.40;99.90;;;;;;5050583;28;20240;-73
2022/09/09 06:22:30;;;;;;;6.90;4.70;;;13.40;99.90;;;;;;5046170;28;20225;-74
2022/09/09 06:24:57;;;;;;;5.03;4.47;;;13.40;99.90;;;;;;5050604;28;20205;-73
2022/09/09 06:27:24;;;;;;;4.87;4.33;;;13.40;99.90;;;;;;5042282;28;20690;-73
2022/09/09 06:29:52;;;;;;;5.57;4.40;;;13.40;99.90;;;;;;5044336;28;20218;-72
2022/09/09 06:32:19;;;;;;;6.20;4.90;;;13.40;99.90;;;;;;5049755;28;20227;-73
2022/09/09 06:34:46;;;;;;;5.00;4.50;;;13.40;99.90;;;;;;5052967;28;20589;-73
2022/09/09 06:37:13;;;;;;;5.87;5.00;;;13.40;99.90;;;;;;5052551;28;20234;-72
2022/09/09 06:39:41;;;;;;;6.80;5.10;;;13.50;99.90;;;;;;5054214;28;20674;-73
2022/09/09 06:42:08;;;;;;;5.90;5.10;;;13.50;99.90;;;;;;5054316;28;20691;-73
2022/09/09 06:44:36;;;;;;;6.87;5.30;;;13.50;99.90;;;;;;5050175;28;20198;-68
2022/09/09 06:47:05;;;;;;;5.63;5.10;;;13.40;99.90;;;;;;5054195;28;20554;-72
2022/09/09 06:49:31;;;;;;;5.77;5.00;;;13.40;99.90;;;;;;5052958;28;20575;-75
2022/09/09 06:51:58;;;;;;;5.40;4.60;;;13.50;99.90;;;;;;5047669;28;20233;-72
2022/09/09 06:54:25;;;;;;;5.47;4.80;;;13.40;99.90;;;;;;5051703;28;20645;-75
2022/09/09 06:56:52;;;;;;;5.90;5.20;;;13.40;99.90;;;;;;5052052;28;20201;-72
2022/09/09 06:59:19;;;;;;;6.47;5.73;;;13.40;99.90;;;;;;5050171;28;20288;-71
2022/09/09 07:01:47;;;;;;;8.77;5.80;;;13.40;99.90;;;;;;5047382;28;20225;-71
2022/09/09 07:04:15;;;;;;;9.03;6.43;;;13.30;99.90;;;;;;5050819;28;20225;-70
2022/09/09 07:06:44;;;;;;;7.87;5.97;;;13.30;99.90;;;;;;5052139;28;20213;-71
2022/09/09 07:09:15;;;;;;;8.87;6.23;;;13.40;99.90;;;;;;5050639;28;20625;-74
2022/09/09 07:11:44;;;;;;;6.87;6.17;;;13.30;99.90;;;;;;5053035;28;20256;-74
2022/09/09 07:14:12;;;;;;;7.23;5.70;;;13.40;99.90;;;;;;5048818;28;20221;-71
2022/09/09 07:16:39;;;;;;;10.23;6.87;;;13.40;99.90;;;;;;5045055;28;21146;-71
2022/09/09 07:19:06;;;;;;;6.93;6.23;;;13.40;99.90;;;;;;5047014;28;20671;-71
2022/09/09 07:21:35;;;;;;;7.43;6.40;;;13.50;99.90;;;;;;5044076;28;20206;-72
2022/09/09 07:24:02;;;;;;;7.80;7.07;;;13.40;99.90;;;;;;5048220;28;20948;-71
2022/09/09 07:26:31;;;;;;;9.70;6.33;;;13.50;99.90;;;;;;5049372;28;20210;-70
2022/09/09 07:28:58;;;;;;;8.93;6.80;;;13.50;99.90;;;;;;5045130;28;20216;-76
2022/09/09 07:31:27;;;;;;;15.53;8.70;;;13.50;99.90;;;;;;5047965;28;20573;-75
2022/09/09 07:33:54;;;;;;;9.97;7.57;;;13.50;99.90;;;;;;5049241;28;20571;-75
2022/09/09 07:36:23;;;;;;;8.60;6.67;;;13.50;99.90;;;;;;5055296;28;20252;-76
2022/09/09 07:38:53;;;;;;;10.07;6.23;;;13.60;99.90;;;;;;5053224;28;20202;-75
2022/09/09 07:41:23;;;;;;;9.60;7.40;;;13.60;99.90;;;;;;5052472;28;20817;-77
2022/09/09 07:43:52;;;;;;;9.67;6.90;;;13.60;99.90;;;;;;5047003;28;20203;-76
2022/09/09 07:46:20;;;;;;;8.40;7.30;;;13.60;99.90;;;;;;5047812;28;20260;-76
2022/09/09 07:48:51;;;;;;;9.90;7.90;;;13.60;99.90;;;;;;5053569;28;20212;-75
2022/09/09 07:51:21;;;;;;;10.33;7.17;;;13.70;99.90;;;;;;5053241;28;20205;-76
2022/09/09 07:53:48;;;;;;;8.77;7.10;;;13.70;99.90;;;;;;5041143;28;20230;-75
2022/09/09 07:56:19;;;;;;;9.60;7.20;;;13.80;99.90;;;;;;5040900;28;20280;-75
2022/09/09 07:58:47;;;;;;;8.83;7.43;;;13.90;99.90;;;;;;5046549;28;20203;-75
2022/09/09 08:01:17;;;;;;;10.90;7.77;;;13.90;99.90;;;;;;5049266;28;20198;-77
2022/09/09 08:03:45;;;;;;;12.53;8.07;;;13.90;99.90;;;;;;5050485;28;20551;-75
2022/09/09 08:06:13;;;;;;;11.30;8.53;;;14.00;99.90;;;;;;5052236;28;20212;-71
2022/09/09 08:08:43;;;;;;;13.73;8.90;;;14.00;99.90;;;;;;5055474;28;20580;-75
2022/09/09 08:11:12;;;;;;;10.23;7.07;;;14.00;99.90;;;;;;5057739;28;20653;-76
2022/09/09 08:13:40;;;;;;;9.27;7.40;;;14.00;99.90;;;;;;5057137;28;20577;-74
2022/09/09 08:16:09;;;;;;;11.53;8.00;;;14.00;99.90;;;;;;5056709;28;20654;-77
2022/09/09 08:18:37;;;;;;;9.17;7.10;;;13.90;99.90;;;;;;5058859;28;20458;-76
2022/09/09 08:21:11;;;;;;;11.93;7.13;;;14.00;99.90;;;;;;5054517;28;20592;-75
2022/09/09 08:23:39;;;;;;;9.93;7.23;;;14.00;99.90;;;;;;5058341;28;20218;-76
2022/09/09 08:26:12;;;;;;;10.93;7.17;;;14.10;99.90;;;;;;5055397;28;20209;-75
2022/09/09 08:28:41;;;;;;;10.63;7.40;;;14.00;99.90;;;;;;5057061;28;20257;-75
2022/09/09 08:31:13;;;;;;;11.73;8.10;;;14.10;99.90;;;;;;5056209;28;20689;-76
2022/09/09 08:33:41;;;;;;;10.43;8.07;;;14.10;99.90;;;;;;5057597;28;20653;-76
2022/09/09 08:36:10;;;;;;;9.47;7.90;;;14.20;99.90;;;;;;5054413;28;20220;-72
2022/09/09 08:38:37;;;;;;;10.70;8.17;;;14.20;99.90;;;;;;5052987;28;20202;-73
2022/09/09 08:41:19;;;;;;;9.30;8.17;;;14.30;99.90;;;;;;5052701;28;20255;-75
2022/09/09 08:43:49;;;;;;;11.70;8.17;;;14.40;99.90;;;;;;5055100;28;20193;-73
2022/09/09 08:46:25;;;;;;;11.53;8.00;;;14.40;99.90;;;;;;5055464;28;20212;-73
2022/09/09 08:48:58;;;;;;;9.03;7.67;;;14.40;99.90;;;;;;5049254;28;20670;-77
2022/09/09 08:51:30;;;;;;;10.40;8.97;;;14.30;99.90;;;;;;5053667;28;20206;-75
2022/09/09 08:54:01;;;;;;;13.10;8.90;;;14.40;99.90;;;;;;5051937;28;20224;-73
2022/09/09 08:56:31;;;;;;;11.60;8.33;;;14.40;99.90;;;;;;5055263;28;20206;-75
2022/09/09 08:59:02;;;;;;;12.83;9.67;;;14.40;99.90;;;;;;5052009;28;20214;-75
2022/09/09 09:01:56;;;;;;;12.13;9.33;;;14.50;99.90;;;;;;5055021;28;20210;-75
2022/09/09 09:04:39;;;;;;;13.63;9.07;;;14.50;99.90;;;;;;5047670;28;20208;-76
2022/09/09 09:07:18;;;;;;;13.27;9.73;;;14.50;99.90;;;;;;5051832;28;20217;-76
2022/09/09 09:09:58;;;;;;;17.00;10.60;;;14.50;99.90;;;;;;5050475;28;20547;-75
2022/09/09 09:12:28;;;;;;;13.07;10.13;;;14.50;99.90;;;;;;5052950;28;20606;-76
2022/09/09 09:14:58;;;;;;;15.73;10.40;;;14.50;99.90;;;;;;5054591;28;20202;-72
2022/09/09 09:17:31;;;;;;;17.37;9.80;;;14.50;99.90;;;;;;5054672;28;20208;-75
2022/09/09 09:19:59;;;;;;;12.97;10.50;;;14.50;99.90;;;;;;5050869;28;20202;-75
2022/09/09 09:22:34;;;;;;;14.23;10.50;;;14.50;99.90;;;;;;5053519;28;20248;-76
2022/09/09 09:25:10;;;;;;;14.53;10.47;;;14.50;99.90;;;;;;5051538;28;20220;-75
2022/09/09 09:27:42;;;;;;;13.17;10.30;;;14.50;99.90;;;;;;5051559;28;20197;-75
2022/09/09 09:30:19;;;;;;;13.30;10.13;;;14.60;99.90;;;;;;5054554;28;20205;-76
2022/09/09 09:32:57;;;;;;;15.17;10.47;;;14.50;99.90;;;;;;5054169;28;20238;-76
2022/09/09 09:35:24;;;;;;;13.83;10.67;;;14.50;99.90;;;;;;5053730;28;20201;-76
2022/09/09 09:37:51;;;;;;;13.80;10.50;;;14.50;99.90;;;;;;5052808;28;20621;-75
2022/09/09 09:40:20;;;;;;;14.90;10.20;;;14.50;99.90;;;;;;5044158;28;20221;-75
2022/09/09 09:42:54;;;;;;;15.20;11.17;;;14.40;99.90;;;;;;5049669;28;20616;-75
2022/09/09 09:45:32;;;;;;;13.10;10.60;;;14.50;99.90;;;;;;5053275;28;20212;-77
2022/09/09 09:48:01;;;;;;;15.80;11.40;;;14.50;99.90;;;;;;5047851;28;20221;-77
2022/09/09 09:50:29;;;;;;;15.87;10.87;;;14.60;99.90;;;;;;5053454;28;20256;-77
2022/09/09 09:52:57;;;;;;;17.13;11.63;;;14.60;99.90;;;;;;5048284;28;20588;-78
2022/09/09 09:55:25;;;;;;;13.73;10.80;;;14.60;99.90;;;;;;5055728;28;20206;-77
2022/09/09 09:57:53;;;;;;;16.20;11.97;;;14.70;99.90;;;;;;5054539;28;20209;-76
2022/09/09 10:00:22;;;;;;;15.33;10.90;;;14.70;99.90;;;;;;5049987;28;20233;-76
2022/09/09 10:02:52;;;;;;;18.77;12.83;;;14.80;99.90;;;;;;5049653;28;20217;-76
2022/09/09 10:05:21;;;;;;;15.47;11.77;;;14.70;99.90;;;;;;5053555;28;20572;-76
2022/09/09 10:08:01;;;;;;;17.67;11.97;;;14.80;99.90;;;;;;5054594;28;20204;-76
2022/09/09 10:10:38;;;;;;;15.73;11.20;;;14.80;99.90;;;;;;5051421;28;20194;-77
2022/09/09 10:13:14;;;;;;;17.10;12.00;;;14.80;99.90;;;;;;5054461;28;20336;-76
2022/09/09 10:15:50;;;;;;;16.53;12.60;;;14.90;99.90;;;;;;5054796;28;20201;-77
2022/09/09 10:18:37;;;;;;;17.63;12.90;;;14.90;99.90;;;;;;5054643;28;20581;-75
2022/09/09 10:21:15;;;;;;;19.70;13.53;;;15.00;99.90;;;;;;5053781;28;20667;-77
2022/09/09 10:24:02;;;;;;;17.53;12.07;;;14.90;99.90;;;;;;5054144;28;20709;-77
2022/09/09 10:26:38;;;;;;;16.77;12.80;;;14.90;99.90;;;;;;5049065;28;20205;-76
2022/09/09 10:29:18;;;;;;;21.47;12.50;;;15.00;99.90;;;;;;5045466;28;20246;-76
2022/09/09 10:31:56;;;;;;;17.93;12.10;;;15.00;99.90;;;;;;5053639;28;20228;-76
2022/09/09 10:34:40;;;;;;;17.83;13.30;;;15.00;99.90;;;;;;5047739;28;20218;-78
2022/09/09 10:37:22;;;;;;;19.67;13.33;;;14.90;99.90;;;;;;5051454;28;20305;-76
2022/09/09 10:39:55;;;;;;;19.13;12.93;;;14.90;99.90;;;;;;5054699;28;20202;-76
2022/09/09 10:42:29;;;;;;;21.00;13.47;;;15.00;99.90;;;;;;5055516;28;20217;-77
2022/09/09 10:45:07;;;;;;;22.30;13.87;;;15.00;99.90;;;;;;5054435;28;20202;-76
2022/09/09 10:47:58;;;;;;;22.70;14.43;;;15.00;99.90;;;;;;5053516;28;20206;-77
2022/09/09 10:50:47;;;;;;;21.03;14.20;;;14.90;99.90;;;;;;5051185;28;20570;-77
2022/09/09 10:53:24;;;;;;;20.93;13.10;;;14.90;99.90;;;;;;5041563;28;20229;-77
2022/09/09 10:55:56;;;;;;;24.35;14.82;;;14.90;99.90;;;;;;5051841;28;20251;-76
2022/09/09 10:58:26;;;;;;;22.67;14.80;;;15.00;99.90;;;;;;5048346;28;20208;-77
2022/09/09 11:00:57;;;;;;;20.10;14.30;;;15.00;99.90;;;;;;5052225;28;20210;-77
2022/09/09 11:03:29;;;;;;;23.83;15.97;;;15.00;99.90;;;;;;5052100;28;20206;-75
2022/09/09 11:06:01;;;;;;;22.33;15.27;;;15.00;99.90;;;;;;5050715;28;20233;-75
2022/09/09 11:08:30;;;;;;;20.83;14.07;;;15.00;99.90;;;;;;5051566;28;20205;-75
2022/09/09 11:11:03;;;;;;;24.33;15.43;;;15.20;99.90;;;;;;5052639;28;20215;-72
2022/09/09 11:13:36;;;;;;;24.57;15.97;;;15.10;99.90;;;;;;5050168;28;20797;-76
2022/09/09 11:16:20;;;;;;;24.20;16.13;;;15.10;99.90;;;;;;5044142;28;20212;-73
2022/09/09 11:18:48;;;;;;;26.97;16.60;;;15.10;99.90;;;;;;5046153;28;20224;-75
2022/09/09 11:21:24;;;;;;;26.60;17.60;;;15.10;99.90;;;;;;5051556;28;20214;-75
2022/09/09 11:23:56;;;;;;;22.97;16.57;;;15.00;99.90;;;;;;5049518;28;20567;-73
2022/09/09 11:26:31;;;;;;;26.07;17.57;;;15.10;99.90;;;;;;5050265;28;20280;-73
2022/09/09 11:29:15;;;;;;;26.17;17.83;;;15.00;99.90;;;;;;5042748;28;20209;-76
2022/09/09 11:31:47;;;;;;;26.03;17.03;;;15.10;99.90;;;;;;5048773;28;20612;-74
2022/09/09 11:34:24;;;;;;;24.93;16.47;;;15.10;99.90;;;;;;5051485;28;20218;-76
2022/09/09 11:37:09;;;;;;;26.27;17.03;;;15.00;99.90;;;;;;5050716;28;20241;-76
2022/09/09 11:40:15;;;;;;;31.30;17.93;;;15.10;99.90;;;;;;5050229;28;20197;-74
2022/09/09 11:42:42;;;;;;;27.02;18.23;;;15.10;99.90;;;;;;5044950;28;20541;-75
2022/09/09 11:45:23;;;;;;;32.37;18.07;;;15.20;99.90;;;;;;5051882;28;20713;-74
2022/09/09 11:47:55;;;;;;;27.33;17.57;;;15.20;99.90;;;;;;5048245;28;20214;-71
2022/09/09 11:50:34;;;;;;;29.87;18.20;;;15.40;99.90;;;;;;5053796;28;20198;-75
2022/09/09 11:53:22;;;;;;;24.63;17.08;;;15.40;99.90;;;;;;5050121;28;20232;-71
2022/09/09 11:56:01;;;;;;;28.55;18.40;;;15.50;99.90;;;;;;5056010;28;20693;-76
2022/09/09 11:58:32;;;;;;;25.47;17.57;;;15.60;99.90;;;;;;5054661;28;20206;-73
2022/09/09 12:00:59;;;;;;;27.30;17.85;;;15.60;99.90;;;;;;5050312;28;20247;-73
2022/09/09 12:03:39;;;;;;;31.77;18.87;;;15.50;99.90;;;;;;5051919;28;20236;-73
2022/09/09 12:06:16;;;;;;;33.60;18.73;;;15.50;99.90;;;;;;5053267;28;20662;-72
2022/09/09 12:08:51;;;;;;;29.87;18.80;;;15.50;99.90;;;;;;5051986;28;20193;-74
2022/09/09 12:11:26;;;;;;;27.80;18.02;;;15.50;99.90;;;;;;5055513;28;20211;-74
2022/09/09 12:13:56;;;;;;;30.17;18.30;;;15.50;99.90;;;;;;5047836;28;20275;-74
2022/09/09 12:16:32;;;;;;;32.47;18.53;;;15.50;99.90;;;;;;5052871;28;20240;-73
2022/09/09 12:19:20;;;;;;;32.00;19.65;;;15.50;99.90;;;;;;5040780;28;20731;-72
2022/09/09 12:21:54;;;;;;;30.30;19.17;;;15.40;99.90;;;;;;5043963;28;20229;-72
2022/09/09 12:24:30;;;;;;;25.90;18.30;;;15.40;99.90;;;;;;5043675;28;20551;-72
2022/09/09 12:27:03;;;;;;;28.77;19.07;;;15.40;99.90;;;;;;5045612;28;20210;-73
2022/09/09 12:29:39;;;;;;;28.37;19.97;;;15.40;99.90;;;;;;5050054;28;20198;-73
2022/09/09 12:32:10;;;;;;;29.52;19.60;;;15.40;99.90;;;;;;5045846;28;20202;-73
2022/09/09 12:34:41;;;;;;;33.30;20.30;;;15.40;99.90;;;;;;5048752;28;20261;-74
2022/09/09 12:37:19;;;;;;;33.90;20.10;;;15.40;99.90;;;;;;5047306;28;20245;-73
2022/09/09 12:39:53;;;;;;;33.07;19.77;;;15.40;99.90;;;;;;5046610;28;20213;-72
2022/09/09 12:42:22;;;;;;;29.83;20.40;;;15.50;99.90;;;;;;5046123;28;20213;-72
2022/09/09 12:44:53;;;;;;;29.33;19.70;;;15.50;99.90;;;;;;5043628;28;20233;-73
2022/09/09 12:47:22;;;;;;;33.43;20.00;;;15.60;99.90;;;;;;5045368;28;20276;-74
2022/09/09 12:49:50;;;;;;;32.40;20.60;;;15.60;99.90;;;;;;5044232;28;20207;-74
2022/09/09 12:52:23;;;;;;;36.83;21.73;;;15.70;99.90;;;;;;5041433;28;20209;-74
2022/09/09 12:54:53;;;;;;;31.75;19.77;;;15.80;99.90;;;;;;5043083;28;20210;-74
2022/09/09 12:57:23;;;;;;;34.07;21.30;;;15.80;99.90;;;;;;5053135;28;20213;-73
2022/09/09 12:59:49;;;;;;;32.33;19.77;;;15.80;99.90;;;;;;5048137;28;20198;-74